Orbital elements of INTELSAT 707
| Launched | 13 March 1996 |
| Flight ended | – |
| Launch site | Europe's Spaceport, Kourou, French Guiana |
| Owner | International Telecommunications Satellite Organization (INTELSAT) |
| NORAD ID | 23816 |
| Alternative names |
IS-707 |
| Date fetched |
Epoch osculation |
Inc. [°] |
Ecc. | RA asc node [hr] |
Arg Peri. [°] |
Mean anom [°] |
Mean motion [rev/day] |
Abs. mag |
| Date fetched |
Epoch osculation |
Inc. [°] |
Ecc. | RA asc node [hr] |
Arg Peri. [°] |
Mean anom [°] |
Mean motion [rev/day] |
Abs. mag |
| 2026 May 08 17:57 | 2026 May 05 05:58:16 | 10.4915 | 0.00723 | 3.3774 | 0.0188 | 185.4109 | 0.98480 | 6.243 |
| 2026 May 07 17:58 | 2026 May 05 05:58:16 | 10.4915 | 0.00723 | 3.3774 | 0.0188 | 185.4109 | 0.98480 | 6.243 |
| 2026 May 06 17:57 | 2026 May 05 05:58:16 | 10.4915 | 0.00723 | 3.3774 | 0.0188 | 185.4109 | 0.98480 | 6.243 |
| 2026 May 05 17:57 | 2026 May 05 05:58:16 | 10.4915 | 0.00723 | 3.3774 | 0.0188 | 185.4109 | 0.98480 | 6.243 |
| 2026 May 04 17:57 | 2026 Apr 30 04:37:42 | 10.4802 | 0.00722 | 3.3804 | 359.7194 | 185.4109 | 0.98480 | 6.243 |
| 2026 May 03 17:57 | 2026 Apr 30 04:37:42 | 10.4802 | 0.00722 | 3.3804 | 359.7194 | 185.4109 | 0.98480 | 6.243 |
| 2026 May 02 17:57 | 2026 Apr 30 04:37:42 | 10.4802 | 0.00722 | 3.3804 | 359.7194 | 185.4109 | 0.98480 | 6.243 |
| 2026 May 01 17:56 | 2026 Apr 30 04:37:42 | 10.4802 | 0.00722 | 3.3804 | 359.7194 | 185.4109 | 0.98480 | 6.243 |
| 2026 Apr 30 17:56 | 2026 Apr 30 04:37:42 | 10.4802 | 0.00722 | 3.3804 | 359.7194 | 185.4109 | 0.98480 | 6.243 |
| 2026 Apr 29 17:57 | 2026 Apr 24 01:39:02 | 10.4664 | 0.00722 | 3.3842 | 359.3644 | 185.4109 | 0.98480 | 6.243 |
| 2026 Apr 28 17:56 | 2026 Apr 24 01:39:02 | 10.4664 | 0.00722 | 3.3842 | 359.3644 | 185.4109 | 0.98480 | 6.243 |
| 2026 Apr 27 17:58 | 2026 Apr 24 01:39:02 | 10.4664 | 0.00722 | 3.3842 | 359.3644 | 185.4109 | 0.98480 | 6.243 |
| 2026 Apr 26 17:58 | 2026 Apr 24 01:39:02 | 10.4664 | 0.00722 | 3.3842 | 359.3644 | 185.4109 | 0.98480 | 6.243 |
| 2026 Apr 25 17:58 | 2026 Apr 24 01:39:02 | 10.4664 | 0.00722 | 3.3842 | 359.3644 | 185.4109 | 0.98480 | 6.243 |
| 2026 Apr 24 17:59 | 2026 Apr 24 01:39:02 | 10.4664 | 0.00722 | 3.3842 | 359.3644 | 185.4109 | 0.98480 | 6.243 |
| 2026 Apr 23 17:57 | 2026 Apr 19 00:18:23 | 10.4554 | 0.00721 | 3.3873 | 359.0301 | 185.4109 | 0.98480 | 6.243 |
| 2026 Apr 22 17:57 | 2026 Apr 19 00:18:23 | 10.4554 | 0.00721 | 3.3873 | 359.0301 | 185.4109 | 0.98480 | 6.243 |
| 2026 Apr 21 17:57 | 2026 Apr 19 00:18:23 | 10.4554 | 0.00721 | 3.3873 | 359.0301 | 185.4109 | 0.98480 | 6.243 |
| 2026 Apr 20 17:57 | 2026 Apr 19 00:18:23 | 10.4554 | 0.00721 | 3.3873 | 359.0301 | 185.4109 | 0.98480 | 6.243 |
| 2026 Apr 19 17:58 | 2026 Apr 19 00:18:23 | 10.4554 | 0.00721 | 3.3873 | 359.0301 | 185.4109 | 0.98480 | 6.243 |
| 2026 Apr 18 17:56 | 2026 Apr 12 21:19:47 | 10.4419 | 0.00719 | 3.3910 | 358.6114 | 185.4109 | 0.98480 | 6.243 |
| 2026 Apr 16 17:57 | 2026 Apr 12 21:19:47 | 10.4419 | 0.00719 | 3.3910 | 358.6114 | 185.4109 | 0.98480 | 6.243 |
| 2026 Apr 14 17:57 | 2026 Apr 12 21:19:47 | 10.4419 | 0.00719 | 3.3910 | 358.6114 | 185.4109 | 0.98480 | 6.243 |
| 2026 Apr 13 17:57 | 2026 Apr 12 21:19:47 | 10.4419 | 0.00719 | 3.3910 | 358.6114 | 185.4109 | 0.98480 | 6.243 |
| 2026 Apr 12 17:57 | 2026 Apr 08 07:56:50 | 10.4315 | 0.00718 | 3.3938 | 358.3118 | 185.4109 | 0.98480 | 6.243 |
| 2026 Apr 11 17:57 | 2026 Apr 08 07:56:50 | 10.4315 | 0.00718 | 3.3938 | 358.3118 | 185.4109 | 0.98480 | 6.243 |